createdAt,value
2022-07-30T00:01:53.935Z,10.98
2022-07-30T00:04:01.241Z,11.77
2022-07-30T00:06:08.641Z,12.07
2022-07-30T00:08:18.643Z,11.60
2022-07-30T00:10:25.866Z,11.38
2022-07-30T00:12:33.101Z,11.88
2022-07-30T00:14:42.075Z,11.93
2022-07-30T00:16:49.109Z,12.45
2022-07-30T00:18:56.406Z,12.35
2022-07-30T00:21:03.999Z,11.23
2022-07-30T00:23:11.469Z,12.85
2022-07-30T00:25:18.652Z,12.90
2022-07-30T00:27:26.086Z,11.75
2022-07-30T00:29:33.426Z,11.95
2022-07-30T00:31:42.394Z,12.38
2022-07-30T00:33:49.886Z,12.43
2022-07-30T00:35:56.963Z,11.73
2022-07-30T00:38:04.658Z,12.90
2022-07-30T00:40:13.325Z,12.00
2022-07-30T00:42:26.803Z,12.75
2022-07-30T00:44:34.652Z,11.55
2022-07-30T00:46:43.427Z,11.85
2022-07-30T00:48:50.530Z,11.65
2022-07-30T00:50:57.839Z,11.57
2022-07-30T00:53:04.867Z,11.13
2022-07-30T00:55:13.685Z,11.38
2022-07-30T00:57:21.173Z,11.80
2022-07-30T00:59:29.786Z,11.35
2022-07-30T01:01:37.912Z,11.20
2022-07-30T01:03:46.912Z,12.45
2022-07-30T01:05:54.001Z,13.07
2022-07-30T01:08:01.897Z,12.55
2022-07-30T01:10:10.401Z,12.50
2022-07-30T01:12:23.114Z,12.65
2022-07-30T01:14:30.296Z,11.60
2022-07-30T01:16:37.979Z,12.32
2022-07-30T01:19:06.582Z,12.57
2022-07-30T01:21:15.762Z,12.55
2022-07-30T01:23:31.071Z,12.15
2022-07-30T01:26:04.472Z,12.25
2022-07-30T01:28:14.517Z,13.43
2022-07-30T01:30:30.102Z,13.70
2022-07-30T01:32:40.615Z,13.40
2022-07-30T01:34:49.887Z,13.82
2022-07-30T01:36:59.052Z,13.20
2022-07-30T01:39:07.785Z,13.52
2022-07-30T01:41:18.655Z,12.90
2022-07-30T01:43:29.263Z,12.85
2022-07-30T01:45:42.320Z,12.88
2022-07-30T01:47:54.991Z,13.20
2022-07-30T01:50:05.001Z,12.43
2022-07-30T01:52:13.403Z,12.02
2022-07-30T01:54:22.378Z,12.13
2022-07-30T01:56:34.754Z,12.38
2022-07-30T01:58:43.300Z,11.43
2022-07-30T02:01:03.182Z,11.50
2022-07-30T02:03:11.720Z,11.77
2022-07-30T02:05:19.072Z,11.77
2022-07-30T02:07:32.396Z,11.10
2022-07-30T02:09:46.963Z,10.10
2022-07-30T02:12:14.487Z,11.30
2022-07-30T02:14:25.891Z,11.13
2022-07-30T02:16:38.739Z,10.38
2022-07-30T02:18:58.741Z,11.65
2022-07-30T02:21:10.874Z,11.55
2022-07-30T02:23:23.044Z,12.80
2022-07-30T02:25:32.824Z,12.65
2022-07-30T02:27:43.799Z,12.38
2022-07-30T02:29:53.957Z,12.05
2022-07-30T02:34:12.264Z,12.48
2022-07-30T02:36:23.185Z,11.40
2022-07-30T02:38:32.308Z,12.52
2022-07-30T02:40:43.885Z,12.60
2022-07-30T02:45:06.343Z,11.65
2022-07-30T02:47:14.658Z,11.52
2022-07-30T02:49:36.778Z,11.75
2022-07-30T02:51:45.149Z,12.00
2022-07-30T02:53:55.199Z,11.25
2022-07-30T02:56:05.189Z,11.40
2022-07-30T02:58:15.191Z,10.68
2022-07-30T03:00:23.935Z,10.55
2022-07-30T03:02:31.819Z,10.77
2022-07-30T03:04:41.179Z,9.90
2022-07-30T03:06:50.112Z,10.20
2022-07-30T03:08:58.059Z,10.88
2022-07-30T03:11:08.047Z,10.82
2022-07-30T03:13:18.052Z,9.60
2022-07-30T03:15:27.994Z,9.60
2022-07-30T03:17:41.470Z,10.18
2022-07-30T03:19:51.677Z,10.48
2022-07-30T03:22:00.804Z,10.25
2022-07-30T03:24:10.037Z,11.50
2022-07-30T03:26:18.700Z,11.07
2022-07-30T03:28:29.782Z,11.68
2022-07-30T03:30:38.542Z,10.73
2022-07-30T03:32:47.102Z,11.10
2022-07-30T03:34:55.262Z,10.75
2022-07-30T03:37:04.954Z,10.98
2022-07-30T03:39:14.540Z,10.32
2022-07-30T03:41:22.598Z,10.88
2022-07-30T03:43:33.964Z,10.27
2022-07-30T03:45:44.173Z,10.02
2022-07-30T03:47:51.970Z,10.18
2022-07-30T03:49:59.263Z,9.80
2022-07-30T03:52:07.202Z,10.82
2022-07-30T03:54:16.223Z,9.52
2022-07-30T03:56:36.725Z,9.70
2022-07-30T03:58:48.515Z,9.70
2022-07-30T04:00:55.538Z,9.70
2022-07-30T04:03:02.871Z,9.77
2022-07-30T04:05:22.151Z,9.93
2022-07-30T04:07:30.958Z,10.27
2022-07-30T04:09:38.405Z,9.68
2022-07-30T04:12:04.059Z,9.55
2022-07-30T04:14:15.337Z,9.48
2022-07-30T04:16:41.345Z,9.50
2022-07-30T04:18:56.734Z,9.35
2022-07-30T04:21:07.253Z,9.32
2022-07-30T04:23:23.391Z,10.57
2022-07-30T04:25:31.385Z,9.48
2022-07-30T04:27:39.341Z,10.18
2022-07-30T04:30:10.017Z,10.45
2022-07-30T04:32:18.894Z,10.80
2022-07-30T04:34:51.062Z,9.63
2022-07-30T04:37:12.731Z,11.07
2022-07-30T04:39:20.422Z,10.52
2022-07-30T04:41:27.603Z,11.10
2022-07-30T04:43:54.958Z,9.88
2022-07-30T04:46:04.025Z,10.80
2022-07-30T04:48:11.522Z,10.15
2022-07-30T04:50:25.512Z,9.60
2022-07-30T04:52:34.538Z,10.18
2022-07-30T04:54:47.503Z,10.32
2022-07-30T04:56:55.866Z,10.50
2022-07-30T04:59:04.683Z,10.32
2022-07-30T05:01:14.858Z,10.20
2022-07-30T05:03:24.742Z,9.35
2022-07-30T05:05:34.880Z,10.05
2022-07-30T05:07:43.455Z,10.20
2022-07-30T05:09:51.404Z,11.57
2022-07-30T05:12:00.482Z,10.20
2022-07-30T05:14:09.855Z,9.73
2022-07-30T05:16:20.123Z,9.85
2022-07-30T05:20:34.789Z,9.68
2022-07-30T05:22:51.645Z,9.95
2022-07-30T05:25:01.072Z,9.70
2022-07-30T05:27:09.276Z,9.65
2022-07-30T05:29:19.627Z,9.30
2022-07-30T05:31:35.817Z,9.10
2022-07-30T05:33:46.389Z,9.75
2022-07-30T05:35:57.101Z,9.57
2022-07-30T05:38:05.304Z,9.70
2022-07-30T05:40:23.393Z,9.15
2022-07-30T05:42:30.535Z,9.02
2022-07-30T05:44:38.270Z,8.88
2022-07-30T05:46:47.316Z,9.85
2022-07-30T05:48:55.049Z,9.45
2022-07-30T05:51:02.225Z,8.48
2022-07-30T05:53:09.459Z,8.15
2022-07-30T05:55:36.334Z,8.05
2022-07-30T05:57:58.685Z,7.93
2022-07-30T06:00:06.798Z,8.10
2022-07-30T06:02:34.811Z,7.93
2022-07-30T06:04:54.510Z,8.00
2022-07-30T06:07:03.080Z,7.70
2022-07-30T06:09:11.814Z,8.23
2022-07-30T06:11:20.638Z,8.02
2022-07-30T06:13:28.639Z,7.35
2022-07-30T06:15:35.842Z,7.32
2022-07-30T06:17:52.020Z,7.60
2022-07-30T06:20:21.922Z,7.47
2022-07-30T06:22:41.195Z,6.95
2022-07-30T06:24:56.566Z,7.68
2022-07-30T06:27:07.121Z,7.22
2022-07-30T06:29:14.518Z,7.72
2022-07-30T06:31:22.360Z,8.05
2022-07-30T06:33:31.384Z,8.05
2022-07-30T06:35:38.920Z,8.07
2022-07-30T06:38:01.794Z,7.90
2022-07-30T06:40:16.689Z,8.50
2022-07-30T06:42:35.946Z,8.45
2022-07-30T06:45:03.313Z,7.93
2022-07-30T06:47:30.560Z,8.05
2022-07-30T06:49:41.269Z,7.85
2022-07-30T06:51:50.190Z,8.68
2022-07-30T06:53:57.579Z,8.70
2022-07-30T06:56:08.098Z,8.98
2022-07-30T06:58:25.265Z,8.50
2022-07-30T07:00:52.834Z,8.68
2022-07-30T07:03:00.885Z,9.27
2022-07-30T07:05:19.360Z,9.05
2022-07-30T07:07:41.182Z,8.30
2022-07-30T07:09:51.032Z,9.27
2022-07-30T07:12:10.910Z,8.73
2022-07-30T07:14:20.290Z,8.02
2022-07-30T07:16:27.804Z,8.90
2022-07-30T07:18:36.295Z,8.93
2022-07-30T07:20:48.189Z,8.15
2022-07-30T07:22:55.685Z,8.65
2022-07-30T07:25:05.652Z,8.82
2022-07-30T07:27:15.509Z,7.82
2022-07-30T07:29:26.178Z,8.18
2022-07-30T07:32:05.418Z,7.90
2022-07-30T07:34:00.819Z,9.10
2022-07-30T07:36:10.558Z,8.05
2022-07-30T07:38:17.804Z,8.75
2022-07-30T07:40:24.879Z,7.38
2022-07-30T07:42:32.168Z,8.57
2022-07-30T07:44:39.190Z,8.68
2022-07-30T07:46:46.512Z,8.07
2022-07-30T07:48:53.849Z,8.68
2022-07-30T07:51:09.533Z,8.48
2022-07-30T07:53:18.150Z,8.75
2022-07-30T07:55:26.103Z,8.60
2022-07-30T07:57:33.946Z,9.15
2022-07-30T07:59:41.600Z,8.43
2022-07-30T08:01:54.756Z,8.07
2022-07-30T08:04:14.846Z,8.38
2022-07-30T08:06:37.654Z,8.13
2022-07-30T08:08:57.176Z,8.13
2022-07-30T08:11:17.217Z,7.95
2022-07-30T08:13:51.538Z,8.43
2022-07-30T08:16:12.659Z,8.32
2022-07-30T08:18:32.348Z,8.48
2022-07-30T08:20:51.563Z,8.02
2022-07-30T08:23:06.219Z,8.60
2022-07-30T08:25:22.500Z,8.15
2022-07-30T08:27:32.771Z,8.27
2022-07-30T08:29:40.205Z,8.13
2022-07-30T08:31:47.901Z,8.90
2022-07-30T08:33:55.286Z,8.20
2022-07-30T08:36:08.986Z,8.27
2022-07-30T08:38:19.993Z,8.38
2022-07-30T08:40:29.940Z,8.15
2022-07-30T08:42:43.479Z,8.20
2022-07-30T08:44:50.911Z,8.63
2022-07-30T08:46:59.833Z,9.05
2022-07-30T08:49:22.623Z,8.77
2022-07-30T08:51:30.790Z,8.50
2022-07-30T08:53:49.645Z,8.90
2022-07-30T08:55:58.764Z,8.60
2022-07-30T08:58:06.875Z,8.32
2022-07-30T09:00:15.789Z,8.57
2022-07-30T09:02:27.549Z,8.85
2022-07-30T09:04:41.270Z,7.88
2022-07-30T09:06:48.814Z,8.60
2022-07-30T09:08:57.982Z,8.40
2022-07-30T09:11:05.467Z,7.22
2022-07-30T09:13:30.730Z,11.25
2022-07-30T09:15:43.280Z,9.13
2022-07-30T09:17:56.098Z,7.53
2022-07-30T09:20:09.942Z,8.18
2022-07-30T09:24:48.364Z,8.20
2022-07-30T09:27:15.059Z,8.18
2022-07-30T09:29:41.852Z,7.78
2022-07-30T09:32:02.242Z,8.55
2022-07-30T09:34:29.482Z,8.52
2022-07-30T09:36:39.638Z,7.90
2022-07-30T09:39:06.679Z,8.48
2022-07-30T09:41:39.807Z,8.30
2022-07-30T09:43:53.670Z,9.15
2022-07-30T09:46:20.411Z,10.23
2022-07-30T09:48:29.893Z,8.85
2022-07-30T09:50:37.278Z,10.02
2022-07-30T09:52:48.947Z,9.70
2022-07-30T09:59:36.517Z,10.82
2022-07-30T10:02:00.966Z,11.25
2022-07-30T10:04:28.875Z,11.07
2022-07-30T10:06:46.288Z,11.48
2022-07-30T10:09:14.292Z,11.32
2022-07-30T10:11:31.218Z,11.15
2022-07-30T10:13:45.417Z,11.65
2022-07-30T10:15:54.136Z,11.02
2022-07-30T10:18:01.723Z,10.88
2022-07-30T10:20:28.954Z,10.98
2022-07-30T10:22:50.453Z,11.13
2022-07-30T10:25:11.191Z,10.50
2022-07-30T10:27:36.957Z,11.35
2022-07-30T10:29:52.649Z,10.43
2022-07-30T10:32:01.254Z,10.27
2022-07-30T10:34:08.895Z,10.93
2022-07-30T10:36:19.559Z,9.55
2022-07-30T10:38:39.097Z,10.35
2022-07-30T10:40:55.485Z,9.38
2022-07-30T10:43:35.955Z,8.98
2022-07-30T10:45:58.187Z,8.90
2022-07-30T10:48:08.684Z,8.77
2022-07-30T10:50:17.873Z,8.95
2022-07-30T10:52:48.032Z,10.23
2022-07-30T10:54:58.386Z,8.93
2022-07-30T10:57:08.946Z,8.98
2022-07-30T10:59:15.924Z,8.55
2022-07-30T11:01:24.953Z,9.77
2022-07-30T11:03:41.192Z,10.07
2022-07-30T11:05:53.750Z,9.88
2022-07-30T11:08:35.834Z,9.43
2022-07-30T11:10:46.013Z,10.02
2022-07-30T11:12:59.962Z,10.43
2022-07-30T11:15:18.295Z,10.63
2022-07-30T11:17:28.189Z,11.13
2022-07-30T11:19:56.151Z,11.35
2022-07-30T11:22:27.906Z,11.52
2022-07-30T11:24:48.979Z,10.90
2022-07-30T11:26:56.505Z,11.35
2022-07-30T11:29:03.842Z,10.35
2022-07-30T11:31:56.414Z,9.13
2022-07-30T11:34:33.840Z,8.57
2022-07-30T11:36:41.418Z,8.35
2022-07-30T11:39:05.193Z,7.75
2022-07-30T11:41:14.984Z,8.07
2022-07-30T11:43:35.871Z,8.75
2022-07-30T11:45:44.810Z,8.30
2022-07-30T11:47:54.290Z,8.18
2022-07-30T11:50:03.632Z,8.88
2022-07-30T11:52:11.531Z,8.70
2022-07-30T11:54:19.023Z,7.68
2022-07-30T11:56:26.295Z,7.00
2022-07-30T11:58:35.321Z,6.40
2022-07-30T12:00:46.647Z,6.45
2022-07-30T12:02:54.083Z,6.80
2022-07-30T12:05:03.175Z,6.85
2022-07-30T12:07:10.505Z,6.90
2022-07-30T12:09:27.434Z,7.22
2022-07-30T12:11:37.980Z,7.05
2022-07-30T12:13:46.493Z,6.45
2022-07-30T12:15:54.289Z,6.90
2022-07-30T12:18:26.444Z,8.25
2022-07-30T12:20:32.758Z,8.38
2022-07-30T12:22:39.835Z,8.45
2022-07-30T12:24:47.069Z,8.35
2022-07-30T12:26:54.100Z,8.20
2022-07-30T12:29:03.126Z,8.07
2022-07-30T12:31:10.207Z,6.95
2022-07-30T12:33:18.559Z,6.53
2022-07-30T12:35:25.958Z,7.10
2022-07-30T12:37:35.123Z,7.75
2022-07-30T12:39:42.358Z,7.90
2022-07-30T12:41:50.822Z,7.68
2022-07-30T12:43:58.623Z,7.93
2022-07-30T12:46:06.364Z,6.88
2022-07-30T12:48:15.230Z,6.70
2022-07-30T12:50:22.570Z,6.63
2022-07-30T12:52:31.602Z,6.40
2022-07-30T12:54:40.972Z,7.30
2022-07-30T12:57:02.148Z,6.80
2022-07-30T12:59:23.604Z,7.05
2022-07-30T13:01:47.072Z,6.47
2022-07-30T13:03:54.604Z,5.15
2022-07-30T13:06:03.125Z,4.32
2022-07-30T13:08:10.712Z,4.60
2022-07-30T13:10:19.988Z,5.32
2022-07-30T13:12:27.477Z,5.88
2022-07-30T13:14:34.818Z,6.15
2022-07-30T13:16:42.970Z,5.50
2022-07-30T13:18:50.403Z,4.13
2022-07-30T13:20:58.006Z,4.10
2022-07-30T13:23:05.335Z,4.55
2022-07-30T13:25:14.005Z,4.00
2022-07-30T13:27:22.768Z,3.78
2022-07-30T13:29:30.318Z,4.25
2022-07-30T13:31:42.929Z,3.92
2022-07-30T13:33:50.977Z,4.22
2022-07-30T13:35:58.156Z,4.70
2022-07-30T13:38:07.273Z,4.60
2022-07-30T13:40:15.134Z,4.60
2022-07-30T13:42:23.889Z,4.78
2022-07-30T13:44:31.176Z,4.38
2022-07-30T13:46:41.315Z,5.05
2022-07-30T13:48:49.106Z,4.25
2022-07-30T13:50:56.262Z,4.20
2022-07-30T13:53:03.895Z,5.00
2022-07-30T13:55:11.487Z,5.47
2022-07-30T13:57:18.527Z,4.90
2022-07-30T13:59:27.384Z,5.07
2022-07-30T14:01:34.753Z,5.00
2022-07-30T14:03:43.772Z,4.85
2022-07-30T14:05:55.190Z,5.25
2022-07-30T14:08:19.573Z,5.00
2022-07-30T14:10:27.152Z,5.28
2022-07-30T14:12:34.642Z,5.47
2022-07-30T14:14:43.420Z,5.82
2022-07-30T14:16:51.929Z,6.05
2022-07-30T14:19:01.721Z,5.82
2022-07-30T14:21:09.165Z,5.35
2022-07-30T14:23:16.283Z,5.40
2022-07-30T14:25:24.040Z,5.88
2022-07-30T14:27:31.223Z,5.82
2022-07-30T14:29:38.139Z,5.65
2022-07-30T14:31:47.262Z,5.70
2022-07-30T14:33:54.600Z,6.03
2022-07-30T14:36:02.187Z,6.07
2022-07-30T14:38:09.523Z,6.40
2022-07-30T14:40:17.523Z,6.40
2022-07-30T14:42:26.447Z,6.10
2022-07-30T14:44:34.040Z,6.40
2022-07-30T14:46:51.614Z,6.03
2022-07-30T14:49:01.964Z,6.15
2022-07-30T14:51:17.925Z,6.28
2022-07-30T14:53:29.245Z,6.57
2022-07-30T14:55:36.571Z,5.72
2022-07-30T14:57:44.572Z,5.85
2022-07-30T14:59:51.606Z,5.50
2022-07-30T15:01:59.827Z,6.55
2022-07-30T15:04:10.626Z,6.90
2022-07-30T15:06:18.417Z,6.65
2022-07-30T15:08:25.394Z,5.57
2022-07-30T15:10:32.780Z,6.28
2022-07-30T15:12:39.761Z,5.45
2022-07-30T15:14:50.124Z,5.78
2022-07-30T15:17:04.237Z,5.70
2022-07-30T15:19:14.821Z,5.22
2022-07-30T15:21:22.358Z,6.07
2022-07-30T15:23:29.859Z,5.85
2022-07-30T15:25:37.286Z,5.78
2022-07-30T15:27:44.785Z,6.35
2022-07-30T15:29:51.904Z,7.22
2022-07-30T15:32:01.393Z,8.23
2022-07-30T15:34:11.805Z,8.13
2022-07-30T15:36:20.877Z,7.38
2022-07-30T15:38:28.366Z,8.48
2022-07-30T15:40:35.860Z,7.25
2022-07-30T15:42:43.748Z,8.15
2022-07-30T15:45:15.453Z,7.82
2022-07-30T15:47:18.081Z,6.93
2022-07-30T15:49:25.676Z,7.32
2022-07-30T15:51:36.538Z,7.20
2022-07-30T15:53:43.925Z,7.32
2022-07-30T15:55:51.108Z,6.97
2022-07-30T15:57:58.391Z,6.90
2022-07-30T16:00:05.573Z,7.60
2022-07-30T16:02:18.590Z,7.28
2022-07-30T16:04:31.790Z,7.10
2022-07-30T16:06:41.467Z,7.25
2022-07-30T16:08:48.637Z,7.38
2022-07-30T16:10:55.724Z,6.78
2022-07-30T16:13:02.896Z,7.05
2022-07-30T16:15:11.716Z,6.95
2022-07-30T16:17:18.898Z,6.75
2022-07-30T16:19:26.389Z,6.50
2022-07-30T16:21:33.672Z,6.35
2022-07-30T16:23:44.946Z,6.20
2022-07-30T16:25:52.032Z,5.67
2022-07-30T16:27:59.418Z,5.63
2022-07-30T16:30:06.597Z,5.32
2022-07-30T16:32:14.189Z,5.35
2022-07-30T16:34:22.998Z,5.13
2022-07-30T16:36:34.078Z,5.32
2022-07-30T16:38:43.412Z,5.47
2022-07-30T16:40:50.551Z,5.63
2022-07-30T16:42:57.577Z,5.65
2022-07-30T16:45:05.530Z,5.18
2022-07-30T16:47:14.105Z,4.97
2022-07-30T16:49:21.409Z,4.60
2022-07-30T16:51:28.546Z,4.95
2022-07-30T16:53:35.682Z,4.78
2022-07-30T16:55:45.019Z,5.07
2022-07-30T16:57:51.941Z,4.47
2022-07-30T16:59:59.128Z,4.95
2022-07-30T17:02:06.326Z,5.05
2022-07-30T17:04:13.695Z,4.15
2022-07-30T17:06:20.866Z,4.75
2022-07-30T17:08:28.009Z,4.43
2022-07-30T17:10:35.240Z,4.25
2022-07-30T17:12:50.539Z,4.40
2022-07-30T17:14:58.043Z,4.43
2022-07-30T17:17:05.637Z,4.00
2022-07-30T17:19:12.867Z,3.65
2022-07-30T17:21:20.663Z,4.05
2022-07-30T17:23:27.595Z,4.35
2022-07-30T17:25:35.484Z,4.68
2022-07-30T17:27:44.461Z,4.22
2022-07-30T17:29:51.634Z,4.88
2022-07-30T17:31:58.771Z,4.63
2022-07-30T17:34:05.850Z,4.97
2022-07-30T17:36:13.908Z,5.95
2022-07-30T17:38:20.879Z,5.85
2022-07-30T17:40:31.575Z,6.88
2022-07-30T17:42:40.774Z,7.45
2022-07-30T17:44:49.903Z,7.82
2022-07-30T17:46:56.929Z,6.65
2022-07-30T17:49:04.111Z,7.28
2022-07-30T17:51:11.290Z,6.13
2022-07-30T17:53:18.739Z,6.65
2022-07-30T17:55:25.921Z,5.90
2022-07-30T17:57:33.001Z,7.28
2022-07-30T17:59:39.864Z,8.05
2022-07-30T18:01:48.683Z,8.30
2022-07-30T18:03:55.826Z,8.60
2022-07-30T18:06:03.459Z,8.60
2022-07-30T18:08:10.637Z,8.15
2022-07-30T18:10:18.038Z,8.73
2022-07-30T18:12:25.368Z,7.88
2022-07-30T18:14:32.703Z,7.75
2022-07-30T18:16:40.084Z,8.07
2022-07-30T18:18:49.006Z,7.18
2022-07-30T18:20:55.882Z,7.78
2022-07-30T18:23:03.110Z,7.30
2022-07-30T18:25:18.031Z,7.43
2022-07-30T18:27:26.843Z,7.10
2022-07-30T18:29:34.028Z,6.78
2022-07-30T18:31:41.210Z,7.20
2022-07-30T18:33:50.439Z,7.60
2022-07-30T18:35:57.523Z,7.90
2022-07-30T18:38:04.804Z,6.82
2022-07-30T18:40:12.864Z,7.03
2022-07-30T18:42:20.187Z,6.28
2022-07-30T18:44:27.674Z,6.25
2022-07-30T18:46:34.960Z,6.18
2022-07-30T18:48:42.346Z,5.97
2022-07-30T18:50:51.678Z,5.80
2022-07-30T18:52:58.758Z,5.55
2022-07-30T18:55:06.194Z,5.90
2022-07-30T18:57:14.633Z,5.30
2022-07-30T18:59:22.049Z,5.65
2022-07-30T19:01:29.255Z,5.50
2022-07-30T19:03:36.617Z,4.80
2022-07-30T19:05:43.798Z,4.80
2022-07-30T19:07:58.101Z,4.65
2022-07-30T19:10:05.836Z,4.15
2022-07-30T19:12:13.275Z,4.13
2022-07-30T19:14:20.557Z,4.38
2022-07-30T19:16:27.646Z,4.40
2022-07-30T19:18:35.278Z,4.18
2022-07-30T19:20:42.306Z,4.70
2022-07-30T19:22:51.484Z,4.10
2022-07-30T19:24:58.616Z,4.05
2022-07-30T19:27:05.904Z,4.40
2022-07-30T19:29:13.403Z,4.45
2022-07-30T19:31:20.498Z,4.47
2022-07-30T19:33:27.907Z,4.53
2022-07-30T19:35:34.947Z,4.65
2022-07-30T19:37:42.165Z,4.30
2022-07-30T19:40:05.321Z,4.43
2022-07-30T19:42:13.539Z,4.80
2022-07-30T19:44:20.710Z,4.32
2022-07-30T19:46:28.763Z,5.18
2022-07-30T19:48:38.553Z,4.55
2022-07-30T19:50:45.736Z,4.20
2022-07-30T19:52:55.785Z,3.80
2022-07-30T19:55:17.151Z,4.30
2022-07-30T19:57:45.649Z,4.47
2022-07-30T20:00:04.561Z,4.40
2022-07-30T20:02:18.528Z,4.15
2022-07-30T20:04:25.669Z,4.32
2022-07-30T20:06:32.839Z,4.53
2022-07-30T20:08:40.229Z,3.90
2022-07-30T20:10:49.559Z,4.20
2022-07-30T20:12:57.510Z,4.57
2022-07-30T20:15:05.766Z,4.20
2022-07-30T20:17:19.463Z,4.68
2022-07-30T20:19:26.942Z,4.45
2022-07-30T20:21:54.245Z,4.35
2022-07-30T20:24:04.186Z,4.17
2022-07-30T20:26:15.669Z,4.40
2022-07-30T20:28:22.811Z,4.53
2022-07-30T20:30:33.621Z,4.82
2022-07-30T20:32:46.310Z,4.90
2022-07-30T20:34:53.819Z,4.88
2022-07-30T20:37:14.978Z,4.90
2022-07-30T20:39:29.075Z,5.00
2022-07-30T20:41:38.200Z,5.30
2022-07-30T20:43:51.666Z,5.47
2022-07-30T20:46:00.548Z,5.20
2022-07-30T20:48:16.934Z,5.30
2022-07-30T20:50:30.385Z,5.30
2022-07-30T20:52:39.400Z,5.10
2022-07-30T20:54:47.095Z,4.93
2022-07-30T20:56:56.627Z,5.55
2022-07-30T20:59:03.912Z,4.50
2022-07-30T21:03:38.561Z,4.55
2022-07-30T21:05:46.857Z,4.20
2022-07-30T21:07:54.050Z,4.00
2022-07-30T21:10:02.245Z,3.92
2022-07-30T21:12:12.293Z,3.97
2022-07-30T21:14:19.439Z,4.22
2022-07-30T21:16:30.661Z,4.10
2022-07-30T21:18:37.891Z,4.07
2022-07-30T21:20:47.378Z,3.88
2022-07-30T21:22:55.584Z,4.10
2022-07-30T21:25:02.973Z,4.10
2022-07-30T21:27:17.057Z,4.13
2022-07-30T21:29:27.157Z,4.20
2022-07-30T21:31:57.898Z,4.18
2022-07-30T21:34:01.126Z,3.58
2022-07-30T21:36:10.427Z,3.95
2022-07-30T21:38:18.638Z,3.50
2022-07-30T21:40:27.131Z,4.40
2022-07-30T21:42:48.622Z,3.97
2022-07-30T21:44:56.185Z,4.05
2022-07-30T21:47:03.416Z,3.90
2022-07-30T21:49:11.372Z,3.53
2022-07-30T21:51:19.072Z,4.05
2022-07-30T21:53:45.332Z,4.00
2022-07-30T21:55:53.707Z,4.00
2022-07-30T21:58:02.678Z,4.35
2022-07-30T22:00:15.591Z,4.07
2022-07-30T22:02:22.878Z,4.38
2022-07-30T22:04:31.290Z,4.25
2022-07-30T22:06:40.076Z,3.95
2022-07-30T22:08:49.287Z,4.03
2022-07-30T22:10:57.448Z,4.47
2022-07-30T22:13:06.666Z,3.70
2022-07-30T22:15:15.152Z,3.83
2022-07-30T22:17:23.735Z,4.32
2022-07-30T22:19:44.341Z,4.30
2022-07-30T22:21:51.829Z,3.33
2022-07-30T22:24:01.879Z,4.03
2022-07-30T22:26:09.682Z,4.00
2022-07-30T22:28:19.364Z,4.22
2022-07-30T22:30:27.670Z,3.88
2022-07-30T22:32:34.752Z,4.30
2022-07-30T22:34:42.187Z,4.18
2022-07-30T22:36:51.834Z,3.90
2022-07-30T22:39:00.301Z,4.40
2022-07-30T22:41:07.432Z,4.05
2022-07-30T22:43:17.425Z,4.05
2022-07-30T22:45:47.222Z,3.72
2022-07-30T22:47:53.952Z,3.78
2022-07-30T22:50:01.861Z,4.15
2022-07-30T22:52:20.051Z,4.28
2022-07-30T22:54:29.269Z,4.13
2022-07-30T22:56:36.615Z,4.15
2022-07-30T22:58:48.576Z,4.30
2022-07-30T23:00:56.044Z,4.30
2022-07-30T23:03:03.075Z,3.97
2022-07-30T23:05:15.159Z,4.45
2022-07-30T23:07:22.238Z,4.63
2022-07-30T23:09:30.812Z,4.40
2022-07-30T23:11:56.272Z,4.30
2022-07-30T23:12:26.633Z,4.55
2022-07-30T23:14:05.444Z,4.60
2022-07-30T23:16:12.625Z,4.22
2022-07-30T23:18:20.365Z,4.18
2022-07-30T23:20:27.354Z,4.40
2022-07-30T23:22:34.947Z,4.10
2022-07-30T23:24:42.168Z,4.38
2022-07-30T23:26:50.499Z,5.32
2022-07-30T23:28:57.555Z,4.80
2022-07-30T23:31:07.041Z,5.05
2022-07-30T23:33:14.172Z,4.47
2022-07-30T23:35:21.812Z,4.63
2022-07-30T23:37:29.100Z,5.18
2022-07-30T23:39:55.938Z,4.60
2022-07-30T23:42:03.018Z,4.50
2022-07-30T23:44:10.212Z,4.78
2022-07-30T23:46:18.930Z,4.93
2022-07-30T23:48:26.406Z,5.43
2022-07-30T23:50:34.356Z,7.68
2022-07-30T23:52:43.341Z,7.22
2022-07-30T23:54:50.627Z,5.05
2022-07-30T23:56:58.566Z,5.05
2022-07-30T23:59:06.357Z,5.15
